Rainbow Lake, New York
Current Conditions -  °F | °C
As of 10:51 PM on Thursday 20 Nov 2014 (Local Time) from KSLK Reporting Station
Clear Clear  
Wind Chill:   Ceiling: Unl
Heat Index: 17°   Visibility: 10mi
Dew Point:   Wind: 9mph
Humidity: 71%   Direction: 230°SW
Pressure: 29.75"   Gusts: NA
Location:  44.47°N, 74.17°W
Report Text: KSLK 210351Z AUTO 23008KT 10SM CLR M08/M13 A2975 RMK AO2 SLP097 T10831128 $
Loading
Personal Weather Stations






























Interactive Weather Map New forecast layout! Learn more

10-Day Weather Forecast

Advertisements
Track Severe Weather on mobile